Time;durP1;ratioP1;P1;durP2;ratioP2;P2;SDS_P1;SDS_P2;PMS_P1;PMS_P2;Temp;Humidity;BMP_temperature;BMP_pressure;BME280_temperature;BME280_humidity;BME280_pressure;Samples;Min_cycle;Max_cycle;Signal;HPM_P1;HPM_P2
2022/09/29 00:03:41;;;;;;;1.9;3.1;;;;;;;12.5;86.6;97310;;;;
2022/09/29 00:14:41;;;;;;;2.4;4.8;;;;;;;12.4;86.7;97320;;;;
2022/09/29 00:24:41;;;;;;;2.4;4.8;;;;;;;12.4;86.4;97320;;;;
2022/09/29 00:35:41;;;;;;;2.4;4.8;;;;;;;12.4;86.4;97340;;;;
2022/09/29 00:46:41;;;;;;;3.6;5.8;;;;;;;12.3;86.3;97340;;;;
2022/09/29 00:57:41;;;;;;;3.6;5.8;;;;;;;12.3;86.1;97340;;;;
2022/09/29 01:08:41;;;;;;;3.6;5.8;;;;;;;12.2;85.1;97360;;;;
2022/09/29 01:18:41;;;;;;;5.4;8.1;;;;;;;11.9;84.5;97380;;;;
2022/09/29 01:28:41;;;;;;;5.4;8.1;;;;;;;11.8;84;97390;;;;
2022/09/29 01:38:41;;;;;;;5.4;8.1;;;;;;;11.7;83.7;97380;;;;
2022/09/29 01:49:41;;;;;;;5.6;8.5;;;;;;;11.6;83.8;97390;;;;
2022/09/29 02:00:42;;;;;;;5.6;8.5;;;;;;;11.4;83.7;97400;;;;
2022/09/29 02:11:41;;;;;;;5.8;9;;;;;;;11.4;84;97410;;;;
2022/09/29 02:22:41;;;;;;;5.8;9;;;;;;;11.4;83.8;97410;;;;
2022/09/29 02:32:41;;;;;;;5.8;9;;;;;;;11.3;84.3;97420;;;;
2022/09/29 02:42:41;;;;;;;6;9.7;;;;;;;11.1;84.5;97420;;;;
2022/09/29 02:53:41;;;;;;;6;9.7;;;;;;;11;84.7;97420;;;;
2022/09/29 03:03:41;;;;;;;6;9.7;;;;;;;10.8;85.5;97420;;;;
2022/09/29 03:14:41;;;;;;;4.5;7.8;;;;;;;10.7;85.9;97410;;;;
2022/09/29 03:24:41;;;;;;;4.5;7.8;;;;;;;10.7;85.7;97420;;;;
2022/09/29 03:35:41;;;;;;;4.5;7.8;;;;;;;10.6;86.3;97420;;;;
2022/09/29 03:45:41;;;;;;;5.2;8.2;;;;;;;10.6;86.5;97410;;;;
2022/09/29 03:56:41;;;;;;;5.2;8.2;;;;;;;10.5;86.7;97420;;;;
2022/09/29 04:06:41;;;;;;;5.2;8.2;;;;;;;10.5;86.9;97420;;;;
2022/09/29 04:16:41;;;;;;;4.4;7.3;;;;;;;10.4;86.7;97410;;;;
2022/09/29 04:26:41;;;;;;;4.4;7.3;;;;;;;10.3;86.9;97410;;;;
2022/09/29 04:36:41;;;;;;;4.4;7.3;;;;;;;10.3;87.2;97420;;;;
2022/09/29 04:47:41;;;;;;;4.2;6.3;;;;;;;10.4;87.4;97430;;;;
2022/09/29 04:58:41;;;;;;;4.2;6.3;;;;;;;10.5;87;97450;;;;
2022/09/29 05:08:41;;;;;;;4.2;6.3;;;;;;;10.4;86.8;97460;;;;
2022/09/29 05:18:41;;;;;;;4.8;6.9;;;;;;;10.6;86.9;97470;;;;
2022/09/29 05:28:41;;;;;;;4.8;6.9;;;;;;;10.6;86.8;97470;;;;
2022/09/29 05:38:41;;;;;;;4.8;6.9;;;;;;;10.6;87.1;97470;;;;
2022/09/29 05:49:41;;;;;;;4.1;10.1;;;;;;;10.8;86.9;97480;;;;
2022/09/29 06:00:41;;;;;;;4.1;10.1;;;;;;;11.1;86.3;97480;;;;
2022/09/29 06:11:41;;;;;;;7.7;11.2;;;;;;;11.3;86;97490;;;;
2022/09/29 06:21:41;;;;;;;7.7;11.2;;;;;;;11.4;85.6;97490;;;;
2022/09/29 06:31:41;;;;;;;7.7;11.2;;;;;;;11.5;85.2;97480;;;;
2022/09/29 06:42:41;;;;;;;55.8;67.7;;;;;;;11.6;84.7;97480;;;;
2022/09/29 06:53:41;;;;;;;55.8;67.7;;;;;;;11.3;85.4;97500;;;;
2022/09/29 07:03:41;;;;;;;55.8;67.7;;;;;;;11.6;85.2;97490;;;;
2022/09/29 07:13:41;;;;;;;4.8;6.6;;;;;;;11.8;85.1;97490;;;;
2022/09/29 07:24:42;;;;;;;4.8;6.6;;;;;;;11.9;85.1;97500;;;;
2022/09/29 07:35:41;;;;;;;4.8;6.6;;;;;;;12.1;83.8;97510;;;;
2022/09/29 07:46:41;;;;;;;4.8;6.8;;;;;;;12.2;83.5;97530;;;;
2022/09/29 07:57:42;;;;;;;4.8;6.8;;;;;;;12;82.9;97530;;;;
2022/09/29 08:07:41;;;;;;;4.8;6.8;;;;;;;12.1;83.1;97530;;;;
2022/09/29 08:18:41;;;;;;;11.7;15.4;;;;;;;12.4;82.7;97540;;;;
2022/09/29 08:29:41;;;;;;;11.7;15.4;;;;;;;12.6;81.4;97550;;;;
2022/09/29 08:39:41;;;;;;;4.4;6.2;;;;;;;12.6;81.2;97560;;;;
2022/09/29 08:49:41;;;;;;;4.4;6.2;;;;;;;13.1;80.5;97560;;;;
2022/09/29 08:59:41;;;;;;;4.4;6.2;;;;;;;13.2;79.8;97560;;;;
2022/09/29 09:10:43;;;;;;;4.2;6.7;;;;;;;14;77.7;97570;;;;
2022/09/29 09:20:41;;;;;;;4.2;6.7;;;;;;;14.1;72.6;97570;;;;
2022/09/29 09:31:41;;;;;;;4.2;6.7;;;;;;;14.6;72.5;97570;;;;
2022/09/29 09:42:42;;;;;;;1.9;3.7;;;;;;;15.1;71.1;97560;;;;
2022/09/29 09:52:41;;;;;;;1.9;3.7;;;;;;;15;67.7;97570;;;;
2022/09/29 10:03:41;;;;;;;1.9;3.7;;;;;;;15.4;68.4;97580;;;;
2022/09/29 10:14:41;;;;;;;3.9;6.3;;;;;;;15.7;69.1;97580;;;;
2022/09/29 10:24:41;;;;;;;3.9;6.3;;;;;;;15.1;67.4;97590;;;;
2022/09/29 10:35:41;;;;;;;3.9;6.3;;;;;;;15.2;66.8;97590;;;;
2022/09/29 10:45:41;;;;;;;2.2;4.8;;;;;;;14.6;66.9;97590;;;;
2022/09/29 10:56:41;;;;;;;2.2;4.8;;;;;;;14.4;69.9;97610;;;;
2022/09/29 11:06:41;;;;;;;2.2;4.8;;;;;;;14.5;70.2;97620;;;;
2022/09/29 11:16:41;;;;;;;6;8.2;;;;;;;14.5;69.9;97630;;;;
2022/09/29 11:27:42;;;;;;;6;8.2;;;;;;;14.9;70.5;97630;;;;
2022/09/29 11:37:41;;;;;;;6;8.2;;;;;;;15.4;68.8;97620;;;;
2022/09/29 11:48:41;;;;;;;2.8;6;;;;;;;15.4;67.8;97620;;;;
2022/09/29 11:59:41;;;;;;;2.8;6;;;;;;;15.3;68;97620;;;;
2022/09/29 12:09:41;;;;;;;1.9;4.1;;;;;;;15;67.4;97630;;;;
2022/09/29 12:20:41;;;;;;;1.9;4.1;;;;;;;14.5;69.3;97630;;;;
2022/09/29 12:30:41;;;;;;;1.9;4.1;;;;;;;14.2;71.7;97650;;;;
2022/09/29 12:41:42;;;;;;;1.6;3.4;;;;;;;13.9;72.1;97640;;;;
2022/09/29 12:52:41;;;;;;;1.6;3.4;;;;;;;13.7;71.8;97650;;;;
2022/09/29 13:03:41;;;;;;;1.6;3.4;;;;;;;14;71.5;97660;;;;
2022/09/29 13:14:41;;;;;;;1.4;4.2;;;;;;;14.1;70.8;97670;;;;
2022/09/29 13:24:41;;;;;;;1.4;4.2;;;;;;;13.8;72.1;97670;;;;
2022/09/29 13:34:41;;;;;;;1.4;4.2;;;;;;;14.1;70.6;97680;;;;
2022/09/29 13:44:41;;;;;;;1.4;3.2;;;;;;;14;71.5;97680;;;;
2022/09/29 13:55:41;;;;;;;1.4;3.2;;;;;;;13.8;70.7;97680;;;;
2022/09/29 14:06:41;;;;;;;1.4;3.2;;;;;;;13.6;72.4;97680;;;;
2022/09/29 14:17:41;;;;;;;1.6;3.8;;;;;;;14.1;71.9;97690;;;;
2022/09/29 14:28:42;;;;;;;1.6;3.8;;;;;;;14;72.2;97700;;;;
2022/09/29 14:40:26;;;;;;;2.4;4.4;;;;;;;14.2;71.5;97720;;;;
2022/09/29 15:01:43;;;;;;;2.4;4.4;;;;;;;13.8;71.1;97720;;;;
2022/09/29 15:11:42;;;;;;;2.7;5.4;;;;;;;13.8;72.2;97730;;;;
2022/09/29 15:21:41;;;;;;;2.7;5.4;;;;;;;13.5;73.6;97750;;;;
2022/09/29 15:32:41;;;;;;;2.7;5.4;;;;;;;13.3;74.4;97750;;;;
2022/09/29 15:42:42;;;;;;;19.9;25;;;;;;;13.1;75.1;97750;;;;
2022/09/29 15:53:43;;;;;;;19.9;25;;;;;;;12.8;76.2;97760;;;;
2022/09/29 16:03:41;;;;;;;19.9;25;;;;;;;12.8;76.2;97760;;;;
2022/09/29 16:14:41;;;;;;;17.1;22.6;;;;;;;12.6;77;97770;;;;
2022/09/29 16:25:42;;;;;;;17.1;22.6;;;;;;;12.4;77.3;97780;;;;
2022/09/29 16:35:41;;;;;;;17.1;22.6;;;;;;;12.2;78.2;97780;;;;
2022/09/29 16:45:42;;;;;;;4.4;8.1;;;;;;;12;79;97790;;;;
2022/09/29 16:55:42;;;;;;;4.4;8.1;;;;;;;11.8;80.3;97810;;;;
2022/09/29 17:06:41;;;;;;;4.4;8.1;;;;;;;11.7;81.2;97820;;;;
2022/09/29 17:17:42;;;;;;;7.2;10.4;;;;;;;11.5;82.2;97830;;;;
2022/09/29 17:28:14;;;;;;;7.2;10.4;;;;;;;11.4;82.2;97850;;;;
2022/09/29 17:37:42;;;;;;;7.2;10.4;;;;;;;11.5;82.1;97870;;;;
2022/09/29 17:47:42;;;;;;;5.7;9.5;;;;;;;11.3;82.6;97850;;;;
2022/09/29 17:57:42;;;;;;;5.7;9.5;;;;;;;11.2;83.7;97860;;;;
2022/09/29 18:08:42;;;;;;;5.7;9.5;;;;;;;11;84.7;97860;;;;
2022/09/29 18:18:42;;;;;;;9.1;11.7;;;;;;;11;84.8;97860;;;;
2022/09/29 18:29:42;;;;;;;9.1;11.7;;;;;;;10.8;85.1;97850;;;;
2022/09/29 18:39:42;;;;;;;10.6;13.9;;;;;;;10.8;84.8;97860;;;;
2022/09/29 18:50:42;;;;;;;10.6;13.9;;;;;;;10.5;84.8;97830;;;;
2022/09/29 19:00:42;;;;;;;10.6;13.9;;;;;;;10.4;85;97840;;;;
2022/09/29 19:10:42;;;;;;;10.6;15.9;;;;;;;10.3;85.3;97850;;;;
2022/09/29 19:21:42;;;;;;;10.6;15.9;;;;;;;10.2;85.2;97870;;;;
2022/09/29 19:31:42;;;;;;;10.6;15.9;;;;;;;10.1;84.5;97880;;;;
2022/09/29 19:41:42;;;;;;;10.2;13.2;;;;;;;9.9;84.5;97910;;;;
2022/09/29 19:52:42;;;;;;;10.2;13.2;;;;;;;9.7;84.2;97920;;;;
2022/09/29 20:02:43;;;;;;;10.2;13.2;;;;;;;9.5;84.5;97920;;;;
2022/09/29 20:12:42;;;;;;;10.7;15.3;;;;;;;9.4;85.1;97920;;;;
2022/09/29 20:23:42;;;;;;;10.7;15.3;;;;;;;9.3;85.4;97930;;;;
2022/09/29 20:33:42;;;;;;;10.7;15.3;;;;;;;9.2;85.7;97940;;;;
2022/09/29 20:44:42;;;;;;;10.3;14.1;;;;;;;9.1;86;97940;;;;
2022/09/29 20:54:42;;;;;;;10.3;14.1;;;;;;;9;86.9;97950;;;;
2022/09/29 21:05:44;;;;;;;10.3;14.1;;;;;;;8.9;86.5;97970;;;;
2022/09/29 21:15:42;;;;;;;11.1;16.9;;;;;;;8.8;86.4;97990;;;;
2022/09/29 21:26:42;;;;;;;11.1;16.9;;;;;;;9;87;98000;;;;
2022/09/29 21:36:42;;;;;;;11.1;16.9;;;;;;;9.1;87.8;98000;;;;
2022/09/29 21:48:13;;;;;;;17.7;22.8;;;;;;;9.2;88.5;97980;;;;
2022/09/29 21:58:42;;;;;;;17.7;22.8;;;;;;;9.3;89.2;97980;;;;
2022/09/29 22:09:42;;;;;;;12.6;15.5;;;;;;;9.5;89.3;97990;;;;
2022/09/29 22:20:42;;;;;;;12.6;15.5;;;;;;;9.7;89.1;98000;;;;
2022/09/29 22:30:42;;;;;;;12.6;15.5;;;;;;;9.7;88.7;98000;;;;
2022/09/29 22:41:42;;;;;;;14.9;18.7;;;;;;;9.8;88.8;98000;;;;
2022/09/29 22:51:42;;;;;;;14.9;18.7;;;;;;;9.8;89;98000;;;;
2022/09/29 23:01:42;;;;;;;14.9;18.7;;;;;;;10;88.9;98010;;;;
2022/09/29 23:11:42;;;;;;;13.5;17;;;;;;;10.1;88.6;98010;;;;
2022/09/29 23:22:42;;;;;;;13.5;17;;;;;;;10.3;88.2;98020;;;;
2022/09/29 23:33:42;;;;;;;13.5;17;;;;;;;10.3;87.9;98010;;;;
2022/09/29 23:44:42;;;;;;;13.7;16.1;;;;;;;10.3;87.7;98010;;;;
2022/09/29 23:55:42;;;;;;;13.7;16.1;;;;;;;10.4;87.6;98010;;;;
